createdAt,value
2022-08-08T00:28:48.704Z,2.38
2022-08-08T00:32:28.564Z,2.10
2022-08-08T00:35:04.866Z,2.10
2022-08-08T00:37:47.276Z,1.92
2022-08-08T00:41:11.865Z,2.88
2022-08-08T00:43:40.727Z,2.60
2022-08-08T00:46:57.314Z,2.47
2022-08-08T00:49:58.452Z,2.38
2022-08-08T00:52:40.301Z,2.20
2022-08-08T00:55:07.749Z,1.83
2022-08-08T00:57:45.031Z,2.17
2022-08-08T01:00:41.387Z,2.00
2022-08-08T01:04:02.282Z,1.90
2022-08-08T01:07:10.691Z,2.17
2022-08-08T01:10:14.998Z,2.13
2022-08-08T01:13:43.619Z,2.53
2022-08-08T01:16:35.484Z,2.03
2022-08-08T01:20:01.213Z,2.65
2022-08-08T01:23:05.570Z,2.10
2022-08-08T01:26:15.031Z,1.63
2022-08-08T01:29:19.047Z,2.00
2022-08-08T01:32:17.346Z,1.77
2022-08-08T01:35:16.557Z,2.65
2022-08-08T01:38:05.170Z,2.25
2022-08-08T01:40:43.637Z,2.45
2022-08-08T01:43:53.510Z,1.70
2022-08-08T01:48:07.181Z,1.65
2022-08-08T01:50:08.974Z,1.70
2022-08-08T01:54:04.655Z,1.60
2022-08-08T01:56:29.261Z,1.42
2022-08-08T01:58:56.874Z,1.60
2022-08-08T02:02:03.124Z,1.98
2022-08-08T02:04:45.467Z,1.40
2022-08-08T02:07:50.356Z,1.30
2022-08-08T02:11:04.684Z,1.35
2022-08-08T02:13:55.592Z,1.50
2022-08-08T02:16:38.727Z,1.67
2022-08-08T02:19:26.922Z,1.30
2022-08-08T02:22:54.705Z,1.83
2022-08-08T02:25:47.175Z,1.23
2022-08-08T02:28:53.378Z,1.33
2022-08-08T02:31:58.035Z,1.20
2022-08-08T02:35:07.613Z,1.80
2022-08-08T02:37:58.189Z,1.58
2022-08-08T02:40:59.559Z,1.40
2022-08-08T02:44:37.709Z,1.50
2022-08-08T02:46:53.745Z,1.20
2022-08-08T02:49:47.848Z,1.52
2022-08-08T02:52:38.704Z,1.85
2022-08-08T02:55:37.484Z,2.08
2022-08-08T02:58:36.876Z,1.38
2022-08-08T03:01:39.774Z,1.52
2022-08-08T03:05:04.228Z,1.33
2022-08-08T03:08:12.994Z,3.60
2022-08-08T03:11:47.946Z,1.15
2022-08-08T03:15:57.395Z,1.83
2022-08-08T03:18:06.564Z,3.63
2022-08-08T03:20:51.882Z,1.45
2022-08-08T03:23:21.230Z,2.28
2022-08-08T03:25:50.829Z,0.90
2022-08-08T03:28:26.433Z,1.35
2022-08-08T03:31:22.031Z,1.23
2022-08-08T03:33:55.619Z,2.03
2022-08-08T03:36:30.393Z,1.30
2022-08-08T03:39:14.839Z,1.30
2022-08-08T03:42:28.779Z,1.40
2022-08-08T03:44:34.536Z,1.23
2022-08-08T03:47:14.148Z,1.70
2022-08-08T03:50:00.589Z,1.30
2022-08-08T03:52:33.960Z,1.35
2022-08-08T03:55:19.782Z,2.42
2022-08-08T03:58:29.902Z,2.00
2022-08-08T04:00:56.523Z,1.80
2022-08-08T04:03:59.130Z,1.45
2022-08-08T04:06:23.266Z,2.13
2022-08-08T04:08:50.573Z,1.08
2022-08-08T04:11:17.951Z,1.83
2022-08-08T04:14:03.043Z,1.77
2022-08-08T04:16:38.807Z,1.38
2022-08-08T04:19:23.324Z,1.75
2022-08-08T04:21:54.412Z,1.23
2022-08-08T04:24:29.624Z,1.23
2022-08-08T04:26:59.565Z,1.30
2022-08-08T04:29:37.047Z,1.83
2022-08-08T04:32:06.926Z,2.67
2022-08-08T04:34:49.289Z,1.17
2022-08-08T04:37:26.284Z,1.63
2022-08-08T04:40:07.131Z,1.40
2022-08-08T04:42:37.204Z,1.50
2022-08-08T04:45:06.062Z,1.67
2022-08-08T04:47:43.255Z,2.15
2022-08-08T04:50:14.321Z,2.58
2022-08-08T04:52:58.679Z,1.75
2022-08-08T04:55:37.922Z,1.10
2022-08-08T04:58:17.597Z,1.40
2022-08-08T05:00:48.247Z,1.88
2022-08-08T05:03:19.139Z,1.25
2022-08-08T05:06:13.235Z,1.95
2022-08-08T05:08:51.838Z,1.48
2022-08-08T05:11:24.175Z,1.80
2022-08-08T05:13:58.639Z,1.58
2022-08-08T05:16:48.067Z,2.08
2022-08-08T05:20:12.687Z,2.20
2022-08-08T05:22:10.279Z,1.38
2022-08-08T05:24:38.451Z,1.38
2022-08-08T05:27:06.774Z,2.08
2022-08-08T05:29:35.874Z,1.67
2022-08-08T05:32:07.371Z,1.95
2022-08-08T05:34:41.810Z,1.20
2022-08-08T05:37:19.166Z,1.40
2022-08-08T05:39:54.968Z,1.35
2022-08-08T05:42:55.107Z,1.50
2022-08-08T05:45:41.444Z,1.90
2022-08-08T05:48:12.406Z,2.10
2022-08-08T05:50:42.650Z,1.52
2022-08-08T05:53:54.696Z,1.65
2022-08-08T05:56:08.003Z,1.52
2022-08-08T05:58:57.951Z,1.23
2022-08-08T06:01:52.777Z,2.35
2022-08-08T06:04:24.830Z,1.38
2022-08-08T06:07:00.331Z,1.92
2022-08-08T06:09:59.080Z,2.75
2022-08-08T06:12:31.084Z,1.40
2022-08-08T06:15:06.321Z,1.70
2022-08-08T06:18:18.568Z,4.25
2022-08-08T06:20:27.122Z,4.57
2022-08-08T06:22:56.226Z,10.68
2022-08-08T06:26:36.104Z,7.60
2022-08-08T06:28:29.124Z,6.13
2022-08-08T06:31:03.786Z,6.40
2022-08-08T06:34:27.083Z,7.22
2022-08-08T06:36:53.617Z,14.03
2022-08-08T06:39:22.415Z,29.00
2022-08-08T06:42:03.361Z,21.08
2022-08-08T06:44:31.317Z,17.65
2022-08-08T06:47:01.679Z,16.33
2022-08-08T06:49:56.498Z,13.88
2022-08-08T06:52:18.401Z,11.75
2022-08-08T06:54:48.914Z,10.40
2022-08-08T06:57:16.545Z,12.30
2022-08-08T07:00:10.653Z,10.02
2022-08-08T07:02:35.276Z,7.55
2022-08-08T07:05:20.865Z,10.07
2022-08-08T07:08:16.497Z,13.15
2022-08-08T07:10:52.034Z,7.85
2022-08-08T07:13:25.110Z,8.18
2022-08-08T07:16:18.732Z,6.15
2022-08-08T07:19:19.023Z,9.45
2022-08-08T07:22:05.485Z,5.13
2022-08-08T07:24:54.956Z,6.53
2022-08-08T07:27:27.926Z,4.75
2022-08-08T07:30:18.072Z,7.80
2022-08-08T07:32:49.865Z,4.70
2022-08-08T07:35:17.838Z,9.60
2022-08-08T07:38:05.067Z,4.55
2022-08-08T07:40:38.332Z,5.03
2022-08-08T07:43:09.100Z,8.57
2022-08-08T07:46:05.757Z,4.22
2022-08-08T07:48:29.601Z,7.47
2022-08-08T07:51:00.882Z,8.88
2022-08-08T07:54:01.110Z,6.78
2022-08-08T07:56:43.277Z,4.97
2022-08-08T07:59:16.175Z,8.10
2022-08-08T08:02:36.962Z,4.15
2022-08-08T08:05:03.619Z,2.85
2022-08-08T08:07:37.893Z,3.22
2022-08-08T08:10:08.319Z,9.43
2022-08-08T08:12:47.249Z,4.50
2022-08-08T08:15:23.249Z,3.97
2022-08-08T08:17:55.818Z,8.90
2022-08-08T08:20:30.324Z,8.18
2022-08-08T08:22:58.084Z,4.32
2022-08-08T08:25:40.923Z,5.13
2022-08-08T08:28:21.257Z,3.97
2022-08-08T08:30:55.165Z,6.22
2022-08-08T08:33:22.936Z,3.88
2022-08-08T08:36:19.993Z,6.90
2022-08-08T08:38:38.617Z,6.93
2022-08-08T08:41:20.321Z,7.90
2022-08-08T08:43:51.998Z,4.88
2022-08-08T08:46:25.763Z,8.25
2022-08-08T08:48:53.603Z,6.55
2022-08-08T08:51:25.930Z,6.90
2022-08-08T08:54:00.945Z,5.78
2022-08-08T08:56:29.487Z,5.40
2022-08-08T08:58:58.384Z,5.18
2022-08-08T09:01:34.323Z,9.43
2022-08-08T09:04:31.878Z,5.05
2022-08-08T09:07:02.179Z,6.35
2022-08-08T09:09:47.653Z,3.90
2022-08-08T09:12:19.997Z,5.82
2022-08-08T09:14:49.155Z,5.30
2022-08-08T09:17:19.537Z,3.83
2022-08-08T09:21:59.579Z,2.78
2022-08-08T09:22:43.670Z,3.75
2022-08-08T09:25:11.425Z,5.00
2022-08-08T09:27:56.980Z,3.22
2022-08-08T09:30:27.979Z,2.70
2022-08-08T09:33:01.447Z,4.03
2022-08-08T09:35:49.059Z,4.70
2022-08-08T09:38:52.885Z,3.15
2022-08-08T09:41:54.843Z,3.17
2022-08-08T09:44:52.446Z,3.65
2022-08-08T09:48:05.159Z,3.55
2022-08-08T09:50:13.572Z,3.42
2022-08-08T09:52:59.414Z,2.80
2022-08-08T09:56:03.596Z,2.53
2022-08-08T09:58:27.756Z,3.75
2022-08-08T10:01:14.599Z,3.85
2022-08-08T10:04:02.287Z,2.45
2022-08-08T10:06:35.535Z,3.22
2022-08-08T10:09:03.551Z,3.47
2022-08-08T10:12:26.933Z,5.53
2022-08-08T10:14:34.841Z,4.20
2022-08-08T10:17:56.790Z,4.35
2022-08-08T10:20:00.140Z,4.72
2022-08-08T10:22:33.794Z,5.05
2022-08-08T10:25:05.652Z,4.20
2022-08-08T10:27:42.984Z,2.67
2022-08-08T10:30:16.550Z,3.30
2022-08-08T10:33:00.852Z,3.92
2022-08-08T10:36:06.916Z,3.88
2022-08-08T10:38:21.435Z,4.20
2022-08-08T10:40:53.359Z,5.75
2022-08-08T10:43:22.926Z,5.03
2022-08-08T10:45:56.670Z,3.60
2022-08-08T10:48:58.411Z,3.53
2022-08-08T10:51:47.429Z,3.55
2022-08-08T10:54:25.142Z,4.43
2022-08-08T10:57:00.680Z,4.32
2022-08-08T10:59:39.572Z,4.13
2022-08-08T11:02:09.136Z,4.85
2022-08-08T11:04:53.672Z,4.35
2022-08-08T11:08:30.870Z,5.53
2022-08-08T11:10:29.267Z,8.95
2022-08-08T11:13:28.673Z,9.48
2022-08-08T11:16:00.339Z,7.78
2022-08-08T11:18:30.353Z,11.63
2022-08-08T11:21:01.672Z,7.95
2022-08-08T11:23:42.012Z,7.05
2022-08-08T11:26:19.371Z,6.45
2022-08-08T11:28:50.286Z,10.13
2022-08-08T11:31:20.755Z,6.22
2022-08-08T11:34:01.861Z,6.55
2022-08-08T11:36:39.560Z,6.95
2022-08-08T11:39:12.956Z,5.55
2022-08-08T11:41:41.086Z,5.53
2022-08-08T11:44:10.904Z,9.02
2022-08-08T11:46:40.609Z,8.88
2022-08-08T11:49:11.652Z,7.97
2022-08-08T11:51:50.670Z,7.35
2022-08-08T11:54:33.963Z,8.05
2022-08-08T11:57:27.135Z,8.23
2022-08-08T12:00:05.797Z,4.93
2022-08-08T12:02:55.589Z,7.00
2022-08-08T12:05:38.490Z,10.13
2022-08-08T12:08:06.663Z,5.35
2022-08-08T12:10:34.486Z,5.70
2022-08-08T12:13:14.131Z,6.90
2022-08-08T12:15:49.296Z,6.22
2022-08-08T12:18:25.573Z,6.60
2022-08-08T12:20:56.646Z,5.05
2022-08-08T12:23:43.419Z,5.82
2022-08-08T12:26:50.039Z,8.07
2022-08-08T12:29:42.137Z,6.53
2022-08-08T12:32:20.238Z,5.50
2022-08-08T12:35:04.604Z,7.70
2022-08-08T12:38:01.185Z,7.05
2022-08-08T12:40:56.556Z,6.85
2022-08-08T12:43:48.014Z,6.40
2022-08-08T12:46:25.351Z,6.85
2022-08-08T12:49:25.137Z,6.40
2022-08-08T12:51:58.582Z,7.90
2022-08-08T12:54:38.171Z,6.60
2022-08-08T12:57:38.282Z,8.15
2022-08-08T13:00:33.899Z,6.05
2022-08-08T13:03:07.456Z,7.10
2022-08-08T13:06:04.326Z,8.32
2022-08-08T13:08:22.413Z,8.00
2022-08-08T13:11:02.285Z,7.57
2022-08-08T13:13:35.221Z,9.68
2022-08-08T13:16:19.164Z,7.15
2022-08-08T13:18:57.526Z,8.85
2022-08-08T13:21:49.005Z,6.70
2022-08-08T13:24:19.091Z,7.45
2022-08-08T13:27:06.253Z,9.73
2022-08-08T13:29:52.892Z,7.15
2022-08-08T13:32:23.505Z,8.10
2022-08-08T13:34:56.118Z,8.02
2022-08-08T13:38:05.801Z,11.52
2022-08-08T13:40:17.679Z,9.95
2022-08-08T13:42:54.912Z,9.07
2022-08-08T13:45:24.126Z,8.23
2022-08-08T13:48:03.041Z,7.32
2022-08-08T13:50:50.474Z,8.25
2022-08-08T13:53:31.628Z,10.82
2022-08-08T13:56:11.868Z,9.27
2022-08-08T13:58:56.341Z,11.45
2022-08-08T14:01:33.101Z,13.32
2022-08-08T14:04:23.121Z,9.18
2022-08-08T14:06:59.221Z,12.18
2022-08-08T14:10:02.528Z,11.55
2022-08-08T14:12:31.667Z,11.45
2022-08-08T14:14:59.995Z,8.43
2022-08-08T14:17:57.734Z,13.75
2022-08-08T14:20:57.335Z,9.15
2022-08-08T14:24:03.428Z,8.82
2022-08-08T14:26:10.958Z,8.15
2022-08-08T14:28:39.661Z,7.68
2022-08-08T14:31:20.507Z,7.25
2022-08-08T14:33:59.839Z,11.13
2022-08-08T14:36:37.016Z,9.05
2022-08-08T14:39:11.712Z,14.38
2022-08-08T14:41:53.581Z,8.57
2022-08-08T14:44:35.030Z,14.00
2022-08-08T14:47:16.639Z,11.23
2022-08-08T14:50:06.461Z,11.48
2022-08-08T14:52:46.745Z,10.95
2022-08-08T14:55:16.408Z,10.65
2022-08-08T14:58:00.864Z,9.68
2022-08-08T15:00:32.675Z,10.07
2022-08-08T15:03:15.795Z,11.27
2022-08-08T15:05:54.318Z,11.68
2022-08-08T15:08:35.484Z,11.13
2022-08-08T15:11:09.133Z,11.50
2022-08-08T15:14:01.744Z,10.00
2022-08-08T15:16:34.027Z,11.35
2022-08-08T15:19:02.701Z,11.55
2022-08-08T15:21:30.589Z,12.35
2022-08-08T15:23:58.373Z,11.70
2022-08-08T15:26:28.977Z,10.55
2022-08-08T15:28:57.190Z,10.80
2022-08-08T15:31:55.801Z,12.73
2022-08-08T15:34:29.148Z,10.77
2022-08-08T15:37:01.829Z,10.40
2022-08-08T15:39:37.508Z,11.65
2022-08-08T15:42:13.434Z,8.30
2022-08-08T15:44:51.562Z,9.05
2022-08-08T15:47:22.423Z,9.10
2022-08-08T15:49:50.456Z,9.40
2022-08-08T15:52:21.505Z,14.80
2022-08-08T15:54:51.852Z,11.60
2022-08-08T15:57:20.984Z,13.10
2022-08-08T16:00:05.135Z,18.83
2022-08-08T16:02:36.303Z,26.15
2022-08-08T16:05:09.419Z,21.33
2022-08-08T16:07:52.612Z,22.92
2022-08-08T16:13:14.683Z,26.25
2022-08-08T16:13:29.193Z,20.98
2022-08-08T16:16:03.224Z,23.77
2022-08-08T16:18:37.054Z,16.33
2022-08-08T16:21:20.580Z,15.50
2022-08-08T16:23:55.774Z,27.15
2022-08-08T16:26:34.798Z,33.97
2022-08-08T16:29:15.322Z,23.50
2022-08-08T16:31:48.311Z,19.60
2022-08-08T16:34:20.607Z,17.42
2022-08-08T16:36:51.825Z,21.98
2022-08-08T16:39:59.697Z,19.95
2022-08-08T16:42:13.854Z,24.17
2022-08-08T16:44:47.444Z,25.30
2022-08-08T16:47:39.927Z,22.63
2022-08-08T16:50:14.341Z,21.55
2022-08-08T16:55:03.607Z,15.45
2022-08-08T16:55:53.940Z,23.27
2022-08-08T16:58:25.496Z,17.02
2022-08-08T17:00:55.350Z,28.42
2022-08-08T17:03:58.447Z,24.88
2022-08-08T17:06:36.911Z,20.98
2022-08-08T17:08:59.998Z,17.58
2022-08-08T17:11:27.948Z,13.98
2022-08-08T17:14:01.751Z,15.45
2022-08-08T17:16:29.842Z,16.92
2022-08-08T17:18:58.468Z,16.75
2022-08-08T17:21:37.634Z,27.40
2022-08-08T17:24:10.697Z,19.05
2022-08-08T17:26:54.230Z,18.35
2022-08-08T17:29:26.161Z,39.10
2022-08-08T17:31:53.547Z,31.60
2022-08-08T17:34:53.767Z,25.55
2022-08-08T17:37:09.341Z,19.15
2022-08-08T17:40:04.228Z,23.50
2022-08-08T17:42:28.563Z,18.00
2022-08-08T17:44:58.094Z,15.25
2022-08-08T17:47:27.723Z,28.90
2022-08-08T17:50:02.613Z,28.20
2022-08-08T17:52:35.318Z,25.23
2022-08-08T17:56:05.300Z,21.40
2022-08-08T17:57:53.446Z,10.38
2022-08-08T18:00:25.861Z,14.48
2022-08-08T18:03:08.329Z,8.65
2022-08-08T18:05:49.373Z,8.45
2022-08-08T18:08:24.484Z,5.95
2022-08-08T18:11:14.974Z,27.90
2022-08-08T18:13:45.217Z,18.42
2022-08-08T18:16:16.949Z,18.83
2022-08-08T18:18:53.769Z,15.80
2022-08-08T18:21:59.609Z,14.20
2022-08-08T18:24:18.931Z,11.88
2022-08-08T18:26:54.188Z,8.93
2022-08-08T18:29:29.558Z,10.68
2022-08-08T18:32:03.685Z,19.88
2022-08-08T18:34:33.022Z,32.65
2022-08-08T18:37:07.925Z,14.32
2022-08-08T18:39:41.124Z,12.82
2022-08-08T18:42:14.340Z,10.23
2022-08-08T18:44:55.091Z,8.30
2022-08-08T18:47:28.047Z,7.03
2022-08-08T18:50:00.268Z,6.72
2022-08-08T18:52:36.632Z,5.18
2022-08-08T18:55:09.456Z,5.10
2022-08-08T18:57:41.498Z,5.10
2022-08-08T19:00:15.596Z,5.85
2022-08-08T19:05:16.731Z,3.45
2022-08-08T19:07:52.515Z,3.40
2022-08-08T19:10:20.061Z,2.63
2022-08-08T19:12:53.022Z,3.65
2022-08-08T19:15:23.689Z,3.47
2022-08-08T19:18:30.905Z,3.08
2022-08-08T19:20:43.067Z,4.40
2022-08-08T19:23:14.249Z,2.45
2022-08-08T19:26:26.845Z,2.58
2022-08-08T19:28:31.287Z,2.38
2022-08-08T19:31:04.128Z,3.90
2022-08-08T19:33:39.545Z,4.30
2022-08-08T19:36:25.272Z,4.10
2022-08-08T19:38:57.077Z,2.55
2022-08-08T19:41:33.730Z,2.38
2022-08-08T19:44:12.884Z,7.28
2022-08-08T19:46:49.114Z,5.50
2022-08-08T19:49:17.255Z,8.25
2022-08-08T19:51:45.592Z,21.70
2022-08-08T19:54:13.239Z,20.63
2022-08-08T19:56:41.690Z,18.45
2022-08-08T19:59:18.831Z,18.52
2022-08-08T20:02:00.935Z,11.05
2022-08-08T20:04:31.280Z,10.50
2022-08-08T20:07:05.492Z,10.88
2022-08-08T20:09:55.925Z,11.60
2022-08-08T20:12:32.672Z,6.88
2022-08-08T20:15:14.938Z,8.20
2022-08-08T20:17:46.760Z,13.43
2022-08-08T20:20:19.512Z,9.85
2022-08-08T20:22:53.734Z,6.70
2022-08-08T20:25:24.628Z,11.88
2022-08-08T20:27:54.494Z,8.98
2022-08-08T20:30:52.738Z,8.48
2022-08-08T20:33:19.794Z,6.80
2022-08-08T20:35:57.897Z,7.00
2022-08-08T20:38:32.755Z,6.15
2022-08-08T20:41:05.999Z,6.07
2022-08-08T20:43:49.425Z,6.47
2022-08-08T20:46:20.663Z,6.88
2022-08-08T20:48:51.289Z,10.43
2022-08-08T20:51:20.595Z,5.68
2022-08-08T20:54:00.177Z,9.48
2022-08-08T20:56:35.992Z,8.32
2022-08-08T20:59:21.030Z,5.15
2022-08-08T21:02:06.433Z,8.63
2022-08-08T21:04:36.940Z,6.50
2022-08-08T21:07:08.309Z,8.32
2022-08-08T21:10:02.177Z,7.50
2022-08-08T21:12:32.473Z,8.80
2022-08-08T21:15:07.203Z,8.00
2022-08-08T21:17:36.904Z,7.70
2022-08-08T21:20:05.466Z,5.90
2022-08-08T21:22:32.826Z,6.80
2022-08-08T21:25:00.309Z,7.85
2022-08-08T21:27:38.675Z,5.85
2022-08-08T21:30:21.714Z,7.47
2022-08-08T21:32:52.490Z,6.28
2022-08-08T21:36:14.381Z,5.72
2022-08-08T21:38:16.152Z,5.55
2022-08-08T21:40:55.843Z,6.57
2022-08-08T21:43:25.133Z,5.50
2022-08-08T21:48:21.658Z,6.32
2022-08-08T21:48:44.641Z,5.72
2022-08-08T21:51:16.841Z,4.80
2022-08-08T21:54:33.127Z,4.55
2022-08-08T21:56:52.090Z,4.95
2022-08-08T21:59:21.065Z,4.40
2022-08-08T22:01:51.961Z,4.30
2022-08-08T22:04:24.821Z,5.95
2022-08-08T22:06:53.088Z,5.05
2022-08-08T22:09:20.447Z,5.82
2022-08-08T22:12:08.938Z,4.57
2022-08-08T22:14:37.175Z,4.20
2022-08-08T22:17:04.583Z,5.97
2022-08-08T22:20:12.682Z,3.42
2022-08-08T22:22:19.659Z,4.85
2022-08-08T22:24:53.783Z,5.22
2022-08-08T22:27:38.445Z,5.32
2022-08-08T22:30:13.636Z,4.45
2022-08-08T22:32:41.244Z,4.18
2022-08-08T22:35:09.181Z,3.85
2022-08-08T22:37:54.242Z,5.13
2022-08-08T22:40:22.466Z,3.58
2022-08-08T22:42:49.760Z,4.30
2022-08-08T22:45:17.759Z,4.00
2022-08-08T22:47:47.368Z,3.95
2022-08-08T22:50:27.062Z,3.75
2022-08-08T22:54:19.641Z,4.10
2022-08-08T22:55:57.609Z,3.58
2022-08-08T22:58:28.796Z,6.07
2022-08-08T23:00:59.811Z,3.65
2022-08-08T23:03:33.999Z,2.90
2022-08-08T23:06:17.015Z,4.28
2022-08-08T23:08:59.056Z,3.50
2022-08-08T23:11:57.947Z,3.35
2022-08-08T23:14:21.389Z,3.00
2022-08-08T23:16:57.700Z,3.92
2022-08-08T23:19:30.871Z,3.08
2022-08-08T23:22:01.058Z,2.90
2022-08-08T23:24:36.326Z,2.60
2022-08-08T23:27:09.611Z,3.10
2022-08-08T23:29:37.514Z,2.83
2022-08-08T23:32:05.843Z,3.10
2022-08-08T23:34:37.828Z,2.38
2022-08-08T23:37:05.662Z,2.78
2022-08-08T23:39:41.608Z,3.65
2022-08-08T23:42:16.771Z,2.35
2022-08-08T23:44:45.213Z,2.58
2022-08-08T23:49:02.868Z,2.42
2022-08-08T23:50:03.160Z,2.40
2022-08-08T23:52:33.239Z,3.08
2022-08-08T23:55:14.761Z,2.05
2022-08-08T23:57:52.514Z,3.05
